Time;durP1;ratioP1;P1;durP2;ratioP2;P2;SDS_P1;SDS_P2;PMS_P1;PMS_P2;Temp;Humidity;BMP_temperature;BMP_pressure;BME280_temperature;BME280_humidity;BME280_pressure;Samples;Min_cycle;Max_cycle;Signal;HPM_P1;HPM_P2
2022/10/05 00:01:14;;;;;;;;;;;;;;;8.84;76.97;98601.53;4974072;28;20441;-91
2022/10/05 00:03:43;;;;;;;;;;;;;;;8.88;76.97;98599.84;4950176;29;19926;-89
2022/10/05 00:06:11;;;;;;;;;;;;;;;8.93;76.64;98602.53;4958400;28;19933;-90
2022/10/05 00:08:39;;;;;;;;;;;;;;;8.91;76.47;98596.59;4958674;28;19926;-90
2022/10/05 00:11:11;;;;;;;;;;;;;;;8.87;76.64;98595.53;4953625;28;19997;-90
2022/10/05 00:13:41;;;;;;;;;;;;;;;8.84;76.69;98593.41;4950157;28;19926;-91
2022/10/05 00:16:17;;;;;;;;;;;;;;;8.85;76.93;98584.19;4972726;28;19927;-91
2022/10/05 00:18:46;;;;;;;;;;;;;;;8.88;76.75;98586.31;4959709;29;20025;-91
2022/10/05 00:21:17;;;;;;;;;;;;;;;8.90;77.00;98583.34;4955454;29;19933;-89
2022/10/05 00:23:45;;;;;;;;;;;;;;;8.88;76.90;98585.50;4954540;29;20376;-89
2022/10/05 00:26:14;;;;;;;;;;;;;;;8.85;77.13;98589.59;4968496;28;20405;-88
2022/10/05 00:28:46;;;;;;;;;;;;;;;8.86;77.11;98579.56;4945513;28;19930;-89
2022/10/05 00:31:17;;;;;;;;;;;;;;;8.85;77.07;98581.47;4958109;28;19935;-89
2022/10/05 00:33:45;;;;;;;;;;;;;;;8.89;77.11;98579.81;4949484;28;19926;-88
2022/10/05 00:36:13;;;;;;;;;;;;;;;8.89;77.07;98574.41;4954696;28;20271;-88
2022/10/05 00:38:42;;;;;;;;;;;;;;;8.87;77.28;98578.47;4957655;28;19936;-89
2022/10/05 00:41:11;;;;;;;;;;;;;;;8.85;77.42;98578.78;4968860;28;20006;-88
2022/10/05 00:43:49;;;;;;;;;;;;;;;8.87;77.14;98570.34;4940577;29;19966;-89
2022/10/05 00:46:18;;;;;;;;;;;;;;;8.83;77.33;98570.09;4955090;29;19989;-88
2022/10/05 00:48:49;;;;;;;;;;;;;;;8.86;77.25;98564.13;4930581;29;19926;-89
2022/10/05 00:51:22;;;;;;;;;;;;;;;8.83;77.47;98572.00;4957013;29;19926;-89
2022/10/05 00:53:53;;;;;;;;;;;;;;;8.89;77.24;98577.13;4952117;29;19934;-89
2022/10/05 00:56:26;;;;;;;;;;;;;;;8.85;77.28;98576.06;4950014;28;19927;-89
2022/10/05 00:58:59;;;;;;;;;;;;;;;8.85;77.26;98567.94;4937010;29;19978;-89
2022/10/05 01:01:28;;;;;;;;;;;;;;;8.88;77.30;98561.13;4946329;28;19954;-77
2022/10/05 01:03:57;;;;;;;;;;;;;;;8.87;77.15;98565.72;4953654;28;20472;-77
2022/10/05 01:06:27;;;;;;;;;;;;;;;8.88;77.16;98563.81;4955462;28;19934;-88
2022/10/05 01:08:58;;;;;;;;;;;;;;;8.91;77.39;98561.38;4957356;28;19934;-89
2022/10/05 01:11:30;;;;;;;;;;;;;;;8.96;77.02;98571.34;4963278;28;19931;-89
2022/10/05 01:14:03;;;;;;;;;;;;;;;8.96;76.87;98570.56;4968536;28;19969;-90
2022/10/05 01:16:33;;;;;;;;;;;;;;;8.90;77.00;98565.19;4932972;29;19927;-76
2022/10/05 01:21:57;;;;;;;;;;;;;;;8.92;77.17;98552.13;4970469;28;19927;-84
2022/10/05 01:24:33;;;;;;;;;;;;;;;8.86;77.32;98556.00;4971086;28;19926;-84
2022/10/05 01:27:12;;;;;;;;;;;;;;;8.82;77.37;98560.34;4971198;28;19958;-85
2022/10/05 01:29:44;;;;;;;;;;;;;;;8.79;77.37;98560.94;4954804;28;19941;-84
2022/10/05 01:32:13;;;;;;;;;;;;;;;8.85;77.36;98553.56;4940819;29;19927;-85
2022/10/05 01:37:36;;;;;;;;;;;;;;;8.85;77.43;98562.50;4963949;28;19977;-85
2022/10/05 01:40:06;;;;;;;;;;;;;;;8.90;77.46;98564.38;4942131;29;19926;-84
2022/10/05 01:42:38;;;;;;;;;;;;;;;8.89;77.38;98560.84;4955001;29;19933;-84
2022/10/05 01:45:09;;;;;;;;;;;;;;;8.86;77.47;98568.72;4970745;28;19928;-85
2022/10/05 01:47:41;;;;;;;;;;;;;;;8.86;77.34;98580.38;4938654;28;19926;-84
2022/10/05 01:50:11;;;;;;;;;;;;;;;8.89;77.17;98571.69;4969736;28;20365;-84
2022/10/05 01:55:39;;;;;;;;;;;;;;;8.87;77.49;98565.72;4991017;28;19958;-91
2022/10/05 01:58:10;;;;;;;;;;;;;;;8.81;77.51;98571.47;4959263;29;19926;-88
2022/10/05 02:00:41;;;;;;;;;;;;;;;8.82;77.35;98565.78;4960258;28;19941;-84
2022/10/05 02:03:11;;;;;;;;;;;;;;;8.79;77.47;98562.81;4931196;29;20017;-85
2022/10/05 02:05:41;;;;;;;;;;;;;;;8.82;77.57;98565.78;4952590;28;19930;-86
2022/10/05 02:08:11;;;;;;;;;;;;;;;8.83;77.51;98563.88;4951580;29;19941;-85
2022/10/05 02:10:41;;;;;;;;;;;;;;;8.81;77.80;98572.28;4954443;29;20393;-85
2022/10/05 02:16:29;;;;;;;;;;;;;;;8.79;77.54;98585.31;4954416;28;19927;-86
2022/10/05 02:18:58;;;;;;;;;;;;;;;8.76;77.69;98577.75;4971150;28;19989;-86
2022/10/05 02:21:26;;;;;;;;;;;;;;;8.73;77.72;98575.59;4970855;28;19930;-85
2022/10/05 02:23:56;;;;;;;;;;;;;;;8.73;77.64;98572.88;4941234;29;19926;-84
2022/10/05 02:26:24;;;;;;;;;;;;;;;8.70;77.77;98565.34;4948730;29;19926;-86
2022/10/05 02:28:54;;;;;;;;;;;;;;;8.69;77.78;98560.22;4940521;29;20014;-85
2022/10/05 02:31:23;;;;;;;;;;;;;;;8.72;77.79;98549.59;4955202;29;20512;-85
2022/10/05 02:33:53;;;;;;;;;;;;;;;8.70;77.91;98532.84;4954887;29;19930;-85
2022/10/05 02:36:23;;;;;;;;;;;;;;;8.73;77.56;98537.66;4953902;29;20351;-85
2022/10/05 02:38:55;;;;;;;;;;;;;;;8.75;77.72;98534.69;4948132;28;19930;-85
2022/10/05 02:41:25;;;;;;;;;;;;;;;8.34;78.20;98527.66;4935467;29;19976;-85
2022/10/05 02:46:46;;;;;;;;;;;;;;;8.49;77.60;98534.88;4965069;28;19933;-86
2022/10/05 02:49:20;;;;;;;;;;;;;;;8.52;77.50;98538.91;4970230;28;19926;-85
2022/10/05 02:51:56;;;;;;;;;;;;;;;8.50;77.35;98532.97;4930600;29;19927;-85
2022/10/05 02:54:32;;;;;;;;;;;;;;;8.47;77.31;98528.13;4937137;29;20030;-85
2022/10/05 02:57:01;;;;;;;;;;;;;;;8.47;77.32;98533.53;4938063;29;20026;-85
2022/10/05 02:59:30;;;;;;;;;;;;;;;8.45;77.77;98536.53;4937756;29;19982;-85
2022/10/05 03:02:03;;;;;;;;;;;;;;;8.46;78.12;98543.56;4953221;28;20411;-85
2022/10/05 03:04:36;;;;;;;;;;;;;;;8.48;77.96;98540.59;4953580;29;19930;-85
2022/10/05 03:07:08;;;;;;;;;;;;;;;8.44;78.05;98536.81;4949303;29;19987;-85
2022/10/05 03:09:39;;;;;;;;;;;;;;;8.47;77.82;98538.94;4955022;28;19937;-85
2022/10/05 03:15:08;;;;;;;;;;;;;;;8.42;78.14;98531.69;4955350;28;19926;-90
2022/10/05 03:17:38;;;;;;;;;;;;;;;8.45;78.02;98533.81;4938474;29;20033;-90
2022/10/05 03:20:12;;;;;;;;;;;;;;;8.47;78.12;98534.38;4954913;28;19977;-89
2022/10/05 03:22:47;;;;;;;;;;;;;;;8.47;77.85;98533.53;4951241;28;20382;-79
2022/10/05 03:25:30;;;;;;;;;;;;;;;8.49;78.01;98531.38;4931449;29;19926;-78
2022/10/05 03:28:00;;;;;;;;;;;;;;;8.46;77.88;98526.50;4929303;29;19968;-78
2022/10/05 03:30:29;;;;;;;;;;;;;;;8.44;77.94;98526.00;4928474;29;20374;-78
2022/10/05 03:32:58;;;;;;;;;;;;;;;8.46;77.99;98526.50;4950640;28;19970;-79
2022/10/05 03:35:30;;;;;;;;;;;;;;;8.42;78.07;98522.78;4950968;29;19949;-78
2022/10/05 03:38:03;;;;;;;;;;;;;;;8.38;77.85;98517.91;4951006;29;20347;-78
2022/10/05 03:40:32;;;;;;;;;;;;;;;8.40;78.03;98521.13;4932583;29;19965;-78
2022/10/05 03:43:05;;;;;;;;;;;;;;;8.36;78.09;98521.97;4949850;28;19927;-78
2022/10/05 03:45:35;;;;;;;;;;;;;;;8.39;78.27;98516.00;4935194;29;20375;-78
2022/10/05 03:48:05;;;;;;;;;;;;;;;8.44;78.05;98513.25;4949872;28;19926;-78
2022/10/05 03:50:41;;;;;;;;;;;;;;;8.36;78.46;98503.03;4951559;28;20378;-78
2022/10/05 03:53:11;;;;;;;;;;;;;;;8.35;78.24;98512.22;4962601;28;19931;-79
2022/10/05 03:55:40;;;;;;;;;;;;;;;8.36;78.30;98503.84;4967605;28;20507;-78
2022/10/05 03:58:10;;;;;;;;;;;;;;;8.29;78.72;98503.31;4935568;29;19973;-78
2022/10/05 04:00:39;;;;;;;;;;;;;;;8.34;78.45;98500.56;4919984;29;19926;-79
2022/10/05 04:03:09;;;;;;;;;;;;;;;8.30;78.67;98491.38;4951267;28;19954;-79
2022/10/05 04:05:41;;;;;;;;;;;;;;;8.31;78.56;98484.91;4937228;28;20380;-78
2022/10/05 04:08:12;;;;;;;;;;;;;;;8.28;78.73;98488.16;4961635;28;19930;-78
2022/10/05 04:10:42;;;;;;;;;;;;;;;8.27;78.92;98480.34;4958615;28;20479;-78
2022/10/05 04:13:36;;;;;;;;;;;;;;;8.31;78.84;98482.19;4933978;28;20048;-78
2022/10/05 04:16:26;;;;;;;;;;;;;;;8.31;78.86;98478.66;4968817;28;19927;-86
2022/10/05 04:18:57;;;;;;;;;;;;;;;8.30;78.61;98477.84;4940193;28;20041;-84
2022/10/05 04:21:28;;;;;;;;;;;;;;;8.37;78.66;98478.41;4957691;28;19927;-86
2022/10/05 04:23:58;;;;;;;;;;;;;;;8.34;78.92;98473.50;4940056;28;19933;-86
2022/10/05 04:26:33;;;;;;;;;;;;;;;8.36;78.71;98478.66;4942673;29;19954;-86
2022/10/05 04:29:02;;;;;;;;;;;;;;;8.31;78.76;98479.50;4971564;28;19997;-86
2022/10/05 04:31:39;;;;;;;;;;;;;;;8.32;78.71;98485.72;4931663;28;19930;-85
2022/10/05 04:34:10;;;;;;;;;;;;;;;8.30;78.96;98483.28;4938794;29;19930;-85
2022/10/05 04:36:40;;;;;;;;;;;;;;;8.35;78.82;98493.25;4947331;28;20037;-86
2022/10/05 04:39:11;;;;;;;;;;;;;;;8.37;78.75;98491.94;4970069;28;19938;-84
2022/10/05 04:41:43;;;;;;;;;;;;;;;8.32;78.89;98494.66;4954253;28;19965;-78
2022/10/05 04:44:17;;;;;;;;;;;;;;;8.38;78.68;98498.94;4947313;28;19926;-77
2022/10/05 04:46:49;;;;;;;;;;;;;;;8.39;78.83;98505.97;4964311;28;19937;-73
2022/10/05 04:50:16;;;;;;;;;;;;;;;8.37;78.85;98502.75;4965403;28;19945;-75
2022/10/05 04:53:02;;;;;;;;;;;;;;;8.39;79.02;98511.41;4919143;28;19926;-74
2022/10/05 04:55:31;;;;;;;;;;;;;;;8.44;78.87;98515.16;4969314;28;19966;-75
2022/10/05 04:58:02;;;;;;;;;;;;;;;8.32;79.13;98516.31;4936724;28;19949;-78
2022/10/05 05:00:32;;;;;;;;;;;;;;;8.42;78.93;98518.16;4942700;28;19926;-76
2022/10/05 05:03:04;;;;;;;;;;;;;;;8.44;78.57;98515.97;4936528;28;20396;-77
2022/10/05 05:05:39;;;;;;;;;;;;;;;8.42;78.78;98517.34;4931107;28;19997;-75
2022/10/05 05:08:40;;;;;;;;;;;;;;;8.37;78.78;98519.00;4952729;28;20017;-74
2022/10/05 05:11:14;;;;;;;;;;;;;;;8.25;79.57;98512.28;4941497;29;19930;-74
2022/10/05 05:14:00;;;;;;;;;;;;;;;8.18;79.33;98504.47;4938252;28;19927;-76
2022/10/05 05:16:53;;;;;;;;;;;;;;;8.17;79.35;98502.88;4935641;28;19926;-76
2022/10/05 05:19:24;;;;;;;;;;;;;;;8.17;79.45;98507.47;4949399;28;20029;-74
2022/10/05 05:21:54;;;;;;;;;;;;;;;8.24;79.48;98511.47;4934414;29;19930;-77
2022/10/05 05:24:26;;;;;;;;;;;;;;;8.28;79.24;98511.72;4934461;28;20321;-78
2022/10/05 05:27:01;;;;;;;;;;;;;;;8.24;79.58;98507.97;4951123;28;19933;-79
2022/10/05 05:29:32;;;;;;;;;;;;;;;8.24;79.75;98516.06;4953130;28;19942;-83
2022/10/05 05:32:01;;;;;;;;;;;;;;;8.29;79.63;98516.84;4936552;29;19949;-88
2022/10/05 05:34:34;;;;;;;;;;;;;;;8.30;79.77;98521.16;4948931;28;19936;-95
2022/10/05 05:37:04;;;;;;;;;;;;;;;8.37;79.47;98524.41;4956967;29;19930;-85
2022/10/05 05:39:36;;;;;;;;;;;;;;;8.28;79.53;98528.78;4956463;28;19941;-88
2022/10/05 05:42:15;;;;;;;;;;;;;;;8.31;79.62;98517.41;4936954;29;20001;-94
2022/10/05 05:45:11;;;;;;;;;;;;;;;8.30;79.24;98523.88;4972407;28;19926;-92
2022/10/05 05:47:40;;;;;;;;;;;;;;;8.28;79.44;98534.19;4956805;29;20398;-92
2022/10/05 05:50:16;;;;;;;;;;;;;;;8.26;79.43;98535.56;4957344;29;19938;-92
2022/10/05 05:53:14;;;;;;;;;;;;;;;8.30;79.40;98536.59;4969911;28;19937;-87
2022/10/05 05:55:46;;;;;;;;;;;;;;;8.30;79.38;98537.41;4954765;28;19930;-87
2022/10/05 05:58:17;;;;;;;;;;;;;;;8.32;79.37;98535.25;4954553;29;19999;-88
2022/10/05 06:00:47;;;;;;;;;;;;;;;8.36;79.21;98546.34;4948487;28;20309;-87
2022/10/05 06:03:18;;;;;;;;;;;;;;;8.39;79.36;98540.38;4947752;29;19927;-87
2022/10/05 06:05:48;;;;;;;;;;;;;;;8.42;79.41;98545.25;4928604;29;19969;-92
2022/10/05 06:08:19;;;;;;;;;;;;;;;8.48;79.28;98551.44;4931391;28;20384;-92
2022/10/05 06:10:54;;;;;;;;;;;;;;;8.53;78.92;98554.91;4949842;29;19934;-82
2022/10/05 06:13:48;;;;;;;;;;;;;;;8.47;79.18;98552.50;4964232;28;20088;-82
2022/10/05 06:16:18;;;;;;;;;;;;;;;8.45;79.58;98560.09;4932960;29;19935;-83
2022/10/05 06:19:09;;;;;;;;;;;;;;;8.52;79.58;98566.00;4953220;29;19934;-82
2022/10/05 06:21:59;;;;;;;;;;;;;;;8.65;79.16;98562.66;4935029;29;19926;-81
2022/10/05 06:24:50;;;;;;;;;;;;;;;8.53;79.63;98565.75;4940837;29;19934;-81
2022/10/05 06:27:55;;;;;;;;;;;;;;;8.61;79.63;98565.13;4961099;28;19930;-82
2022/10/05 06:30:45;;;;;;;;;;;;;;;8.65;79.37;98568.09;4981305;28;19938;-83
2022/10/05 06:33:39;;;;;;;;;;;;;;;8.68;79.49;98569.41;4958751;28;19935;-83
2022/10/05 06:36:32;;;;;;;;;;;;;;;8.74;79.13;98571.00;4947868;28;20024;-76
2022/10/05 06:39:27;;;;;;;;;;;;;;;8.79;79.13;98584.47;4962852;28;19930;-77
2022/10/05 06:42:01;;;;;;;;;;;;;;;8.80;79.18;98578.81;4950231;28;19926;-83
2022/10/05 06:45:10;;;;;;;;;;;;;;;8.90;78.84;98580.63;4953952;29;20054;-82
2022/10/05 06:47:51;;;;;;;;;;;;;;;8.96;79.02;98584.91;4953276;29;19933;-82
2022/10/05 06:50:44;;;;;;;;;;;;;;;9.05;78.77;98594.03;4951127;29;20444;-83
2022/10/05 06:54:06;;;;;;;;;;;;;;;9.10;78.82;98590.47;4944573;29;19926;-83
2022/10/05 06:56:36;;;;;;;;;;;;;;;9.13;78.84;98595.31;4969506;28;20309;-86
2022/10/05 06:59:06;;;;;;;;;;;;;;;9.21;78.80;98596.59;4962930;28;19930;-86
2022/10/05 07:01:39;;;;;;;;;;;;;;;9.22;78.74;98596.34;4963229;28;19930;-87
2022/10/05 07:04:40;;;;;;;;;;;;;;;9.32;78.96;98598.94;4976403;28;19926;-87
2022/10/05 07:07:32;;;;;;;;;;;;;;;9.36;78.90;98599.97;4970470;28;19930;-88
2022/10/05 07:10:23;;;;;;;;;;;;;;;9.44;78.88;98604.78;4949172;28;19926;-86
2022/10/05 07:13:22;;;;;;;;;;;;;;;9.49;78.75;98608.56;4963396;28;19976;-87
2022/10/05 07:16:14;;;;;;;;;;;;;;;9.57;78.76;98611.44;4963349;28;19927;-88
2022/10/05 07:19:09;;;;;;;;;;;;;;;9.64;78.61;98609.22;4968617;28;19935;-86
2022/10/05 07:22:06;;;;;;;;;;;;;;;9.75;78.85;98618.03;4976191;28;19933;-88
2022/10/05 07:25:02;;;;;;;;;;;;;;;9.82;78.57;98614.97;4972531;28;19954;-87
2022/10/05 07:28:03;;;;;;;;;;;;;;;9.89;78.43;98607.28;4967189;28;19933;-87
2022/10/05 07:30:36;;;;;;;;;;;;;;;9.94;78.49;98613.47;4946447;29;19926;-87
2022/10/05 07:33:12;;;;;;;;;;;;;;;10.01;78.52;98604.16;4958773;28;19943;-88
2022/10/05 07:38:37;;;;;;;;;;;;;;;10.20;78.45;98602.28;4949272;29;19986;-88
2022/10/05 07:41:07;;;;;;;;;;;;;;;10.30;78.38;98617.66;4993493;28;20499;-88
2022/10/05 07:43:40;;;;;;;;;;;;;;;10.37;78.23;98613.47;4953678;28;19945;-87
2022/10/05 07:46:30;;;;;;;;;;;;;;;10.45;78.17;98612.84;4984948;28;19926;-88
2022/10/05 07:52:01;;;;;;;;;;;;;;;10.57;77.88;98615.13;4991633;28;19977;-89
2022/10/05 07:54:33;;;;;;;;;;;;;;;10.62;78.02;98614.25;4960928;28;19933;-88
2022/10/05 07:57:05;;;;;;;;;;;;;;;10.69;77.52;98623.63;4956847;28;19927;-88
2022/10/05 07:59:35;;;;;;;;;;;;;;;10.75;77.53;98611.56;4939325;29;19926;-87
2022/10/05 08:02:07;;;;;;;;;;;;;;;10.87;77.18;98622.00;4965411;28;19927;-86
2022/10/05 08:04:41;;;;;;;;;;;;;;;10.97;77.27;98612.88;4952108;28;19958;-87
2022/10/05 08:07:15;;;;;;;;;;;;;;;11.00;76.88;98625.88;4924335;28;19927;-87
2022/10/05 08:09:49;;;;;;;;;;;;;;;11.06;76.73;98623.88;4951490;28;19927;-88
2022/10/05 08:12:30;;;;;;;;;;;;;;;11.16;76.40;98626.44;4957355;28;19974;-86
2022/10/05 08:15:29;;;;;;;;;;;;;;;11.26;76.36;98623.56;4956029;29;20041;-86
2022/10/05 08:18:00;;;;;;;;;;;;;;;11.31;76.11;98626.19;4948793;28;19926;-88
2022/10/05 08:20:34;;;;;;;;;;;;;;;11.37;76.09;98621.47;4957489;29;19942;-86
2022/10/05 08:23:14;;;;;;;;;;;;;;;11.42;75.69;98622.19;4984919;28;19953;-86
2022/10/05 08:25:46;;;;;;;;;;;;;;;11.53;75.55;98622.81;4961994;28;19934;-81
2022/10/05 08:28:17;;;;;;;;;;;;;;;11.63;75.33;98621.81;4937393;28;20041;-82
2022/10/05 08:30:54;;;;;;;;;;;;;;;11.66;74.83;98626.63;4940042;28;19930;-81
2022/10/05 08:33:23;;;;;;;;;;;;;;;11.73;74.99;98610.75;4941341;29;19931;-80
2022/10/05 08:35:59;;;;;;;;;;;;;;;11.84;74.55;98612.19;4986280;28;19977;-81
2022/10/05 08:38:31;;;;;;;;;;;;;;;11.91;74.56;98609.06;4971521;28;19927;-82
2022/10/05 08:41:08;;;;;;;;;;;;;;;11.97;74.08;98605.91;4976332;28;20018;-82
2022/10/05 08:43:47;;;;;;;;;;;;;;;12.07;73.58;98605.72;4960156;28;19946;-81
2022/10/05 08:46:24;;;;;;;;;;;;;;;12.14;73.19;98610.75;4939219;29;19948;-83
2022/10/05 08:49:12;;;;;;;;;;;;;;;12.26;73.37;98604.78;4953550;29;20386;-81
2022/10/05 08:52:06;;;;;;;;;;;;;;;12.37;72.95;98602.66;4968789;28;20363;-82
2022/10/05 08:54:51;;;;;;;;;;;;;;;12.47;72.99;98602.44;4972805;28;20025;-83
2022/10/05 08:57:38;;;;;;;;;;;;;;;12.52;72.17;98600.41;4922923;28;19926;-81
2022/10/05 09:00:10;;;;;;;;;;;;;;;12.62;72.48;98599.34;4950760;28;20397;-81
2022/10/05 09:02:45;;;;;;;;;;;;;;;12.67;71.98;98606.59;4950744;28;19926;-80
2022/10/05 09:05:17;;;;;;;;;;;;;;;12.75;71.98;98608.59;4946169;28;19950;-80
2022/10/05 09:07:58;;;;;;;;;;;;;;;12.82;72.11;98609.78;4951448;28;19958;-80
2022/10/05 09:10:36;;;;;;;;;;;;;;;12.91;71.97;98598.94;4970689;28;19933;-79
2022/10/05 09:13:25;;;;;;;;;;;;;;;13.01;71.46;98597.91;4938452;29;19926;-80
2022/10/05 09:16:16;;;;;;;;;;;;;;;13.09;71.66;98597.94;4922375;28;20028;-80
2022/10/05 09:18:59;;;;;;;;;;;;;;;13.17;71.16;98604.59;4956118;28;19927;-80
2022/10/05 09:21:34;;;;;;;;;;;;;;;13.23;70.96;98599.84;4955666;28;19926;-81
2022/10/05 09:24:06;;;;;;;;;;;;;;;13.30;70.90;98600.19;4953688;28;19930;-84
2022/10/05 09:26:53;;;;;;;;;;;;;;;13.42;70.57;98599.63;4928842;29;19945;-79
2022/10/05 09:29:35;;;;;;;;;;;;;;;13.53;70.61;98599.06;4939316;28;19931;-78
2022/10/05 09:32:11;;;;;;;;;;;;;;;13.63;70.27;98606.97;4953666;29;19974;-79
2022/10/05 09:34:54;;;;;;;;;;;;;;;13.71;70.67;98604.59;4967910;28;20025;-79
2022/10/05 09:37:28;;;;;;;;;;;;;;;13.79;70.13;98603.81;4941187;28;20022;-79
2022/10/05 09:40:10;;;;;;;;;;;;;;;13.88;69.96;98594.53;4953559;28;19946;-79
2022/10/05 09:42:43;;;;;;;;;;;;;;;13.96;69.64;98590.22;4941796;28;19934;-80
2022/10/05 09:45:36;;;;;;;;;;;;;;;14.06;69.31;98586.38;4953985;28;19934;-80
2022/10/05 09:48:25;;;;;;;;;;;;;;;14.09;69.13;98586.56;4964344;28;20385;-77
2022/10/05 09:51:33;;;;;;;;;;;;;;;14.18;69.26;98593.97;4950633;28;20008;-77
2022/10/05 09:54:27;;;;;;;;;;;;;;;14.18;69.32;98585.78;4921848;28;19927;-80
2022/10/05 09:57:03;;;;;;;;;;;;;;;14.24;69.18;98581.78;4923559;29;20002;-80
2022/10/05 10:03:04;;;;;;;;;;;;;;;14.29;69.56;98574.22;4934930;29;19931;-80
2022/10/05 10:05:57;;;;;;;;;;;;;;;14.31;69.30;98573.91;4940632;29;19930;-87
2022/10/05 10:08:59;;;;;;;;;;;;;;;14.39;69.49;98567.66;4953116;29;19926;-88
2022/10/05 10:11:41;;;;;;;;;;;;;;;14.42;69.51;98570.53;4972702;28;19973;-89
2022/10/05 10:14:16;;;;;;;;;;;;;;;14.49;69.24;98569.28;4962425;29;19927;-88
2022/10/05 10:16:48;;;;;;;;;;;;;;;14.57;69.08;98563.03;4973052;29;19926;-87
2022/10/05 10:19:20;;;;;;;;;;;;;;;14.64;68.96;98568.81;4956206;28;20120;-90
2022/10/05 10:22:01;;;;;;;;;;;;;;;14.68;69.04;98570.56;4967066;29;19934;-89
2022/10/05 10:24:50;;;;;;;;;;;;;;;14.76;68.68;98576.38;4967654;28;20024;-91
2022/10/05 10:27:43;;;;;;;;;;;;;;;14.83;68.53;98565.75;4965427;28;20033;-87
2022/10/05 10:30:29;;;;;;;;;;;;;;;14.90;68.57;98563.31;4936122;29;19981;-88
2022/10/05 10:33:15;;;;;;;;;;;;;;;15.03;68.04;98564.28;4955940;29;19971;-90
2022/10/05 10:35:45;;;;;;;;;;;;;;;15.08;68.83;98562.19;4961534;28;19941;-90
2022/10/05 10:38:30;;;;;;;;;;;;;;;15.22;68.50;98555.69;4966160;28;19937;-89
2022/10/05 10:41:05;;;;;;;;;;;;;;;15.30;68.01;98552.94;4954504;28;19927;-89
2022/10/05 10:43:40;;;;;;;;;;;;;;;15.36;67.68;98562.59;4954491;28;20001;-89
2022/10/05 10:46:12;;;;;;;;;;;;;;;15.40;67.72;98549.06;4929919;28;20005;-89
2022/10/05 10:48:56;;;;;;;;;;;;;;;15.46;67.61;98556.75;4952852;28;20017;-88
2022/10/05 10:51:28;;;;;;;;;;;;;;;15.53;67.08;98549.97;4919450;28;19962;-79
2022/10/05 10:54:02;;;;;;;;;;;;;;;15.53;67.31;98550.78;4950772;28;20068;-79
2022/10/05 10:56:47;;;;;;;;;;;;;;;15.61;68.04;98558.16;4944915;29;19926;-90
2022/10/05 10:59:35;;;;;;;;;;;;;;;15.73;67.19;98548.47;4938567;29;19981;-90
2022/10/05 11:02:14;;;;;;;;;;;;;;;15.79;66.97;98544.41;4955642;28;19937;-90
2022/10/05 11:05:03;;;;;;;;;;;;;;;15.82;66.52;98541.00;4971511;28;19931;-90
2022/10/05 11:07:50;;;;;;;;;;;;;;;15.90;66.18;98540.16;4946197;29;19985;-76
2022/10/05 11:10:28;;;;;;;;;;;;;;;15.92;66.29;98533.19;4906667;28;19930;-76
2022/10/05 11:13:26;;;;;;;;;;;;;;;15.98;66.32;98533.84;4964028;28;19931;-75
2022/10/05 11:16:07;;;;;;;;;;;;;;;15.99;66.11;98529.97;4959277;28;20013;-77
2022/10/05 11:18:41;;;;;;;;;;;;;;;16.00;66.31;98537.03;4934647;29;19974;-78
2022/10/05 11:21:29;;;;;;;;;;;;;;;16.02;66.06;98523.81;4923290;29;20034;-77
2022/10/05 11:24:09;;;;;;;;;;;;;;;16.01;66.04;98524.94;4960193;28;19961;-78
2022/10/05 11:27:21;;;;;;;;;;;;;;;16.06;65.76;98519.28;4966898;28;20366;-75
2022/10/05 11:30:00;;;;;;;;;;;;;;;16.12;66.14;98511.66;4924669;29;19930;-75
2022/10/05 11:32:47;;;;;;;;;;;;;;;16.18;65.76;98513.84;4951449;28;19993;-78
2022/10/05 11:35:37;;;;;;;;;;;;;;;16.23;65.56;98519.16;4953055;28;20029;-77
2022/10/05 11:38:13;;;;;;;;;;;;;;;16.29;65.49;98510.72;4932971;29;19927;-78
2022/10/05 11:40:55;;;;;;;;;;;;;;;16.33;65.41;98511.66;4960608;28;20393;-78
2022/10/05 11:43:38;;;;;;;;;;;;;;;16.33;65.06;98506.19;4939174;29;19933;-78
2022/10/05 11:46:09;;;;;;;;;;;;;;;16.34;65.16;98513.25;4944892;28;19931;-79
2022/10/05 11:48:50;;;;;;;;;;;;;;;16.39;64.79;98504.84;4929810;29;19997;-78
2022/10/05 11:51:25;;;;;;;;;;;;;;;16.42;64.37;98504.19;4934497;28;19930;-86
2022/10/05 11:54:01;;;;;;;;;;;;;;;16.49;64.59;98493.47;4948995;29;20033;-85
2022/10/05 11:56:34;;;;;;;;;;;;;;;16.54;64.47;98493.25;4965052;29;19933;-86
2022/10/05 11:59:05;;;;;;;;;;;;;;;16.53;64.78;98488.91;4933320;29;19926;-86
2022/10/05 12:01:37;;;;;;;;;;;;;;;16.59;63.88;98487.56;4933791;28;20025;-78
2022/10/05 12:04:08;;;;;;;;;;;;;;;16.63;63.64;98488.50;4939413;29;19982;-78
2022/10/05 12:06:48;;;;;;;;;;;;;;;16.64;63.85;98483.81;4944310;29;20098;-79
2022/10/05 12:09:21;;;;;;;;;;;;;;;16.65;63.45;98480.72;4953369;28;19989;-79
2022/10/05 12:11:55;;;;;;;;;;;;;;;16.66;63.45;98482.31;4954339;28;19977;-79
2022/10/05 12:14:28;;;;;;;;;;;;;;;16.69;63.17;98481.66;4939767;29;19977;-79
2022/10/05 12:16:59;;;;;;;;;;;;;;;16.76;62.84;98487.44;4953790;28;20381;-79
2022/10/05 12:19:32;;;;;;;;;;;;;;;16.80;63.09;98481.28;4951438;28;19933;-79
2022/10/05 12:22:03;;;;;;;;;;;;;;;16.80;62.78;98476.59;4969039;28;19949;-79
2022/10/05 12:24:44;;;;;;;;;;;;;;;16.83;62.96;98484.16;4918301;28;19930;-77
2022/10/05 12:27:14;;;;;;;;;;;;;;;16.80;62.81;98476.59;4912952;29;19937;-76
2022/10/05 12:29:47;;;;;;;;;;;;;;;16.87;62.70;98476.03;4952325;28;20346;-75
2022/10/05 12:32:17;;;;;;;;;;;;;;;16.88;62.94;98475.69;4937977;29;19930;-76
2022/10/05 12:34:47;;;;;;;;;;;;;;;16.91;62.85;98477.75;4958090;28;19926;-77
2022/10/05 12:37:24;;;;;;;;;;;;;;;16.94;62.91;98471.59;4929122;29;20279;-74
2022/10/05 12:39:54;;;;;;;;;;;;;;;16.99;62.68;98478.78;4915994;29;19930;-75
2022/10/05 12:42:26;;;;;;;;;;;;;;;17.01;62.69;98476.53;4952396;28;19934;-76
2022/10/05 12:45:06;;;;;;;;;;;;;;;17.03;62.33;98475.03;4963221;28;20404;-75
2022/10/05 12:47:36;;;;;;;;;;;;;;;17.09;62.29;98475.63;4987807;28;20354;-79
2022/10/05 12:50:10;;;;;;;;;;;;;;;17.15;62.19;98471.53;4949860;28;20409;-79
2022/10/05 12:52:44;;;;;;;;;;;;;;;17.20;61.82;98479.53;4970597;28;19927;-79
2022/10/05 12:55:15;;;;;;;;;;;;;;;17.20;61.97;98474.03;4969139;28;19938;-79
2022/10/05 12:57:45;;;;;;;;;;;;;;;17.22;62.75;98480.00;4961215;28;19927;-84
2022/10/05 13:00:15;;;;;;;;;;;;;;;17.24;62.75;98479.66;4971116;28;19926;-84
2022/10/05 13:02:49;;;;;;;;;;;;;;;17.29;61.99;98472.00;4963494;28;19930;-77
2022/10/05 13:05:26;;;;;;;;;;;;;;;17.30;62.23;98475.53;4958605;28;19993;-77
2022/10/05 13:08:00;;;;;;;;;;;;;;;17.33;61.55;98477.63;4974708;28;20029;-76
2022/10/05 13:10:32;;;;;;;;;;;;;;;17.36;61.50;98476.13;4959875;28;19927;-76
2022/10/05 13:13:06;;;;;;;;;;;;;;;17.37;61.86;98478.53;4966677;28;19926;-77
2022/10/05 13:18:32;;;;;;;;;;;;;;;17.41;61.72;98465.69;4970437;28;19934;-80
2022/10/05 13:21:03;;;;;;;;;;;;;;;17.43;61.87;98457.94;4958488;28;20021;-76
2022/10/05 13:23:35;;;;;;;;;;;;;;;17.48;61.82;98468.69;4964195;28;19926;-78
2022/10/05 13:26:07;;;;;;;;;;;;;;;17.46;61.92;98461.94;4955728;28;19927;-84
2022/10/05 13:28:37;;;;;;;;;;;;;;;17.45;61.74;98452.91;4946742;29;19958;-84
2022/10/05 13:31:07;;;;;;;;;;;;;;;17.47;61.82;98450.63;4936478;29;19950;-77
2022/10/05 13:33:41;;;;;;;;;;;;;;;17.49;62.03;98450.28;4952807;28;19934;-76
2022/10/05 13:36:11;;;;;;;;;;;;;;;17.53;61.37;98452.00;4969424;28;19926;-79
2022/10/05 13:38:47;;;;;;;;;;;;;;;17.55;61.59;98448.91;4945225;28;20085;-79
2022/10/05 13:41:22;;;;;;;;;;;;;;;17.51;62.14;98451.50;4938239;29;20449;-79
2022/10/05 13:43:53;;;;;;;;;;;;;;;17.53;61.92;98443.75;4952386;29;19934;-79
2022/10/05 13:46:24;;;;;;;;;;;;;;;17.58;61.53;98445.47;4935524;29;20298;-78
2022/10/05 13:48:57;;;;;;;;;;;;;;;17.61;61.66;98446.72;4952132;29;20389;-79
2022/10/05 13:51:28;;;;;;;;;;;;;;;17.60;61.36;98448.66;4953693;29;19990;-79
2022/10/05 13:54:00;;;;;;;;;;;;;;;17.63;61.01;98441.66;4926813;29;21902;-79
2022/10/05 13:56:32;;;;;;;;;;;;;;;17.69;61.32;98454.06;4969047;28;19926;-79
2022/10/05 13:59:03;;;;;;;;;;;;;;;17.68;61.81;98450.47;4932487;29;19933;-79
2022/10/05 14:01:35;;;;;;;;;;;;;;;17.70;61.11;98444.66;4947524;29;19926;-80
2022/10/05 14:04:05;;;;;;;;;;;;;;;17.73;60.78;98443.97;4968779;28;19927;-79
2022/10/05 14:06:36;;;;;;;;;;;;;;;17.76;60.56;98430.34;4925940;29;19931;-80
2022/10/05 14:12:25;;;;;;;;;;;;;;;17.86;60.80;98431.03;4966854;28;20028;-79
2022/10/05 14:15:21;;;;;;;;;;;;;;;17.88;61.09;98426.78;4922688;29;19930;-79